createdAt,value
2023-02-07T00:00:46.932Z,26.83
2023-02-07T00:03:50.020Z,24.60
2023-02-07T00:06:52.526Z,20.60
2023-02-07T00:09:56.759Z,25.75
2023-02-07T00:12:59.342Z,26.30
2023-02-07T00:16:03.766Z,23.23
2023-02-07T00:19:06.253Z,24.83
2023-02-07T00:22:08.980Z,34.85
2023-02-07T00:25:11.856Z,25.75
2023-02-07T00:28:14.707Z,26.00
2023-02-07T00:31:23.708Z,25.27
2023-02-07T00:34:26.443Z,24.67
2023-02-07T00:37:28.794Z,24.30
2023-02-07T00:40:31.570Z,26.83
2023-02-07T00:43:34.900Z,24.30
2023-02-07T00:46:38.742Z,30.30
2023-02-07T00:49:41.233Z,19.63
2023-02-07T00:52:43.932Z,24.42
2023-02-07T00:55:46.391Z,22.90
2023-02-07T00:58:50.954Z,23.30
2023-02-07T01:01:53.785Z,28.00
2023-02-07T01:04:56.514Z,25.37
2023-02-07T01:08:00.137Z,20.40
2023-02-07T01:11:07.388Z,28.62
2023-02-07T01:14:09.794Z,22.25
2023-02-07T01:17:12.639Z,25.90
2023-02-07T01:20:16.184Z,24.03
2023-02-07T01:23:19.986Z,22.48
2023-02-07T01:26:26.718Z,29.52
2023-02-07T01:29:29.440Z,21.55
2023-02-07T01:32:33.539Z,24.97
2023-02-07T01:35:37.953Z,25.43
2023-02-07T01:38:41.402Z,25.15
2023-02-07T01:41:44.120Z,26.58
2023-02-07T01:45:07.083Z,23.95
2023-02-07T01:48:17.144Z,22.00
2023-02-07T01:51:20.133Z,23.80
2023-02-07T01:54:24.148Z,28.77
2023-02-07T01:57:27.439Z,26.12
2023-02-07T02:00:30.457Z,26.85
2023-02-07T02:03:37.612Z,22.70
2023-02-07T02:06:41.769Z,25.20
2023-02-07T02:09:44.827Z,24.37
2023-02-07T02:12:50.191Z,30.58
2023-02-07T02:16:13.491Z,24.00
2023-02-07T02:19:52.616Z,26.67
2023-02-07T02:23:13.380Z,24.77
2023-02-07T02:26:42.125Z,23.87
2023-02-07T02:29:55.209Z,22.35
2023-02-07T02:33:13.378Z,22.05
2023-02-07T02:36:45.823Z,20.87
2023-02-07T02:40:10.658Z,20.23
2023-02-07T02:43:23.231Z,22.60
2023-02-07T02:46:34.958Z,22.90
2023-02-07T02:49:38.509Z,18.77
2023-02-07T02:52:50.529Z,27.10
2023-02-07T02:56:18.716Z,22.67
2023-02-07T02:59:21.366Z,22.98
2023-02-07T03:02:45.038Z,23.00
2023-02-07T03:05:56.603Z,21.75
2023-02-07T03:09:17.489Z,24.33
2023-02-07T03:12:27.458Z,20.20
2023-02-07T03:15:36.567Z,20.48
2023-02-07T03:18:55.352Z,25.10
2023-02-07T03:22:10.649Z,24.33
2023-02-07T03:25:17.116Z,20.00
2023-02-07T03:28:22.086Z,21.53
2023-02-07T03:31:28.802Z,24.63
2023-02-07T03:34:38.071Z,21.40
2023-02-07T03:37:52.091Z,25.48
2023-02-07T03:41:01.478Z,21.80
2023-02-07T03:44:07.296Z,24.70
2023-02-07T03:47:09.836Z,20.62
2023-02-07T03:50:13.389Z,22.10
2023-02-07T03:53:15.960Z,27.50
2023-02-07T03:56:18.814Z,22.07
2023-02-07T03:59:21.261Z,23.53
2023-02-07T04:02:24.380Z,23.38
2023-02-07T04:05:27.402Z,25.20
2023-02-07T04:08:29.820Z,21.92
2023-02-07T04:11:32.672Z,26.63
2023-02-07T04:14:35.090Z,23.20
2023-02-07T04:17:38.000Z,24.73
2023-02-07T04:20:40.336Z,23.17
2023-02-07T04:23:42.954Z,29.15
2023-02-07T04:26:45.604Z,26.90
2023-02-07T04:29:48.607Z,22.47
2023-02-07T04:32:51.060Z,24.08
2023-02-07T04:35:58.956Z,24.60
2023-02-07T04:39:02.130Z,28.27
2023-02-07T04:42:05.460Z,18.57
2023-02-07T04:45:08.399Z,28.60
2023-02-07T04:48:13.464Z,26.60
2023-02-07T04:51:16.180Z,26.60
2023-02-07T04:54:18.965Z,27.48
2023-02-07T04:57:21.393Z,21.00
2023-02-07T05:00:24.224Z,29.77
2023-02-07T05:03:26.744Z,22.45
2023-02-07T05:06:29.606Z,23.98
2023-02-07T05:09:32.272Z,22.00
2023-02-07T05:12:35.026Z,30.83
2023-02-07T05:15:37.700Z,23.30
2023-02-07T05:18:40.701Z,27.85
2023-02-07T05:21:43.148Z,21.83
2023-02-07T05:24:45.831Z,20.67
2023-02-07T05:27:48.288Z,20.50
2023-02-07T05:30:57.327Z,20.30
2023-02-07T05:33:59.844Z,24.30
2023-02-07T05:37:02.545Z,21.80
2023-02-07T05:40:05.251Z,20.52
2023-02-07T05:43:08.470Z,26.37
2023-02-07T05:46:11.530Z,25.17
2023-02-07T05:49:14.804Z,22.15
2023-02-07T05:52:17.273Z,21.92
2023-02-07T05:55:20.236Z,21.42
2023-02-07T05:58:22.768Z,20.37
2023-02-07T06:01:25.573Z,23.37
2023-02-07T06:04:28.314Z,21.62
2023-02-07T06:07:30.766Z,24.90
2023-02-07T06:10:33.632Z,25.98
2023-02-07T06:13:36.214Z,24.80
2023-02-07T06:16:38.984Z,27.57
2023-02-07T06:19:41.313Z,24.02
2023-02-07T06:22:43.968Z,25.00
2023-02-07T06:25:46.429Z,22.48
2023-02-07T06:28:49.099Z,23.77
2023-02-07T06:31:51.581Z,22.27
2023-02-07T06:34:54.478Z,22.27
2023-02-07T06:37:56.925Z,20.52
2023-02-07T06:40:59.807Z,25.20
2023-02-07T06:44:02.365Z,22.67
2023-02-07T06:47:05.189Z,21.87
2023-02-07T06:50:09.258Z,23.08
2023-02-07T06:53:12.221Z,19.92
2023-02-07T06:56:17.142Z,26.23
2023-02-07T06:59:22.129Z,29.83
2023-02-07T07:02:24.545Z,28.33
2023-02-07T07:05:29.323Z,23.70
2023-02-07T07:08:31.675Z,22.00
2023-02-07T07:11:34.592Z,24.02
2023-02-07T07:14:36.987Z,26.50
2023-02-07T07:17:40.863Z,26.53
2023-02-07T07:20:43.291Z,25.95
2023-02-07T07:23:45.993Z,23.87
2023-02-07T07:26:50.109Z,24.52
2023-02-07T07:29:53.981Z,18.87
2023-02-07T07:32:56.517Z,23.07
2023-02-07T07:36:00.996Z,24.73
2023-02-07T07:39:04.349Z,26.40
2023-02-07T07:42:08.249Z,26.30
2023-02-07T07:45:13.434Z,26.73
2023-02-07T07:48:16.120Z,27.97
2023-02-07T07:51:18.920Z,24.73
2023-02-07T07:54:21.865Z,24.90
2023-02-07T07:57:28.203Z,36.90
2023-02-07T08:00:31.088Z,22.67
2023-02-07T08:03:34.397Z,26.30
2023-02-07T08:06:36.917Z,34.50
2023-02-07T08:09:39.639Z,32.70
2023-02-07T08:12:44.113Z,27.45
2023-02-07T08:15:47.666Z,29.33
2023-02-07T08:18:50.056Z,30.13
2023-02-07T08:21:52.825Z,23.25
2023-02-07T08:24:55.507Z,26.55
2023-02-07T08:27:58.355Z,30.88
2023-02-07T08:31:02.320Z,26.73
2023-02-07T08:34:05.153Z,26.07
2023-02-07T08:37:09.401Z,29.33
2023-02-07T08:40:12.687Z,29.23
2023-02-07T08:43:15.575Z,26.20
2023-02-07T08:46:18.429Z,29.50
2023-02-07T08:49:21.098Z,23.20
2023-02-07T08:52:24.047Z,30.95
2023-02-07T08:55:26.866Z,29.17
2023-02-07T08:58:29.687Z,28.98
2023-02-07T09:01:32.229Z,28.87
2023-02-07T09:04:36.508Z,24.87
2023-02-07T09:07:39.022Z,28.73
2023-02-07T09:10:42.135Z,24.98
2023-02-07T09:13:46.511Z,31.87
2023-02-07T09:16:49.292Z,25.57
2023-02-07T09:19:51.848Z,25.20
2023-02-07T09:23:13.290Z,28.62
2023-02-07T09:26:19.719Z,26.12
2023-02-07T09:29:22.426Z,28.65
2023-02-07T09:32:24.863Z,22.43
2023-02-07T09:35:28.277Z,26.97
2023-02-07T09:38:31.260Z,26.42
2023-02-07T09:41:36.970Z,22.42
2023-02-07T09:45:04.021Z,23.85
2023-02-07T09:48:16.451Z,21.83
2023-02-07T09:51:21.085Z,23.97
2023-02-07T09:54:27.500Z,22.10
2023-02-07T09:57:44.243Z,22.40
2023-02-07T10:00:58.180Z,21.23
2023-02-07T10:04:13.012Z,21.63
2023-02-07T10:07:15.678Z,21.10
2023-02-07T10:10:41.729Z,20.17
2023-02-07T10:14:10.928Z,25.05
2023-02-07T10:17:32.369Z,19.30
2023-02-07T10:20:42.008Z,20.30
2023-02-07T10:24:13.570Z,23.97
2023-02-07T10:27:29.717Z,18.98
2023-02-07T10:30:37.642Z,20.00
2023-02-07T10:33:47.890Z,20.27
2023-02-07T10:36:53.242Z,18.80
2023-02-07T10:40:22.542Z,18.47
2023-02-07T10:43:30.587Z,21.52
2023-02-07T10:46:35.142Z,11.73
2023-02-07T10:49:37.974Z,19.67
2023-02-07T10:53:03.513Z,12.17
2023-02-07T10:56:15.449Z,13.70
2023-02-07T10:59:49.104Z,18.27
2023-02-07T11:02:54.817Z,21.62
2023-02-07T11:06:04.298Z,17.25
2023-02-07T11:09:20.592Z,19.73
2023-02-07T11:12:27.960Z,17.20
2023-02-07T11:15:40.251Z,17.15
2023-02-07T11:19:01.742Z,19.05
2023-02-07T11:22:19.376Z,17.60
2023-02-07T11:25:35.942Z,16.58
2023-02-07T11:28:38.841Z,17.37
2023-02-07T11:31:44.059Z,14.52
2023-02-07T11:34:58.192Z,14.10
2023-02-07T11:38:04.918Z,13.20
2023-02-07T11:41:34.775Z,19.30
2023-02-07T11:44:42.672Z,18.77
2023-02-07T11:47:49.319Z,22.48
2023-02-07T11:50:57.621Z,19.15
2023-02-07T11:54:04.124Z,18.73
2023-02-07T11:57:35.918Z,19.25
2023-02-07T12:00:39.613Z,20.83
2023-02-07T12:03:49.507Z,17.00
2023-02-07T12:07:17.980Z,16.62
2023-02-07T12:10:33.896Z,17.02
2023-02-07T12:13:52.738Z,15.43
2023-02-07T12:16:59.667Z,18.07
2023-02-07T12:20:09.707Z,17.08
2023-02-07T12:23:41.294Z,18.12
2023-02-07T12:26:52.438Z,15.27
2023-02-07T12:30:04.333Z,18.65
2023-02-07T12:33:12.979Z,18.80
2023-02-07T12:36:23.944Z,18.58
2023-02-07T12:39:28.915Z,19.25
2023-02-07T12:42:45.182Z,15.85
2023-02-07T12:45:54.535Z,17.48
2023-02-07T12:49:36.074Z,19.30
2023-02-07T12:52:56.522Z,17.62
2023-02-07T12:56:41.585Z,18.48
2023-02-07T13:00:04.596Z,15.63
2023-02-07T13:03:42.107Z,15.43
2023-02-07T13:07:09.637Z,19.90
2023-02-07T13:10:26.208Z,17.20
2023-02-07T13:14:12.381Z,14.07
2023-02-07T13:17:21.067Z,18.73
2023-02-07T13:20:39.078Z,13.13
2023-02-07T13:23:46.587Z,15.47
2023-02-07T13:26:57.376Z,16.62
2023-02-07T13:30:01.888Z,14.70
2023-02-07T13:33:18.436Z,17.48
2023-02-07T13:36:42.980Z,12.80
2023-02-07T13:40:13.350Z,15.80
2023-02-07T13:43:45.568Z,16.87
2023-02-07T13:47:02.942Z,13.75
2023-02-07T13:50:42.374Z,19.62
2023-02-07T13:54:03.148Z,15.77
2023-02-07T13:57:24.277Z,16.73
2023-02-07T14:00:29.927Z,18.87
2023-02-07T14:03:35.242Z,18.33
2023-02-07T14:06:40.750Z,16.10
2023-02-07T14:09:49.048Z,18.10
2023-02-07T14:12:53.892Z,14.07
2023-02-07T14:16:12.840Z,19.55
2023-02-07T14:19:17.848Z,15.20
2023-02-07T14:22:43.406Z,18.08
2023-02-07T14:25:47.780Z,16.37
2023-02-07T14:28:50.252Z,21.23
2023-02-07T14:31:59.656Z,18.48
2023-02-07T14:35:02.077Z,18.08
2023-02-07T14:38:07.460Z,19.37
2023-02-07T14:41:13.856Z,16.07
2023-02-07T14:44:28.953Z,18.77
2023-02-07T14:47:31.914Z,25.02
2023-02-07T14:50:35.654Z,19.65
2023-02-07T14:53:41.038Z,18.10
2023-02-07T14:56:46.847Z,22.80
2023-02-07T15:00:21.893Z,21.10
2023-02-07T15:03:29.263Z,26.10
2023-02-07T15:06:39.928Z,24.45
2023-02-07T15:09:46.117Z,20.62
2023-02-07T15:12:49.901Z,21.20
2023-02-07T15:16:06.809Z,28.40
2023-02-07T15:19:19.595Z,19.98
2023-02-07T15:22:29.111Z,22.10
2023-02-07T15:25:33.014Z,20.45
2023-02-07T15:28:35.810Z,23.87
2023-02-07T15:31:40.393Z,24.10
2023-02-07T15:34:45.341Z,23.65
2023-02-07T15:37:49.075Z,22.95
2023-02-07T15:40:53.722Z,20.15
2023-02-07T15:44:00.815Z,22.83
2023-02-07T15:47:06.940Z,27.47
2023-02-07T15:50:25.117Z,23.15
2023-02-07T15:53:30.840Z,27.37
2023-02-07T15:56:33.755Z,22.75
2023-02-07T15:59:38.980Z,23.73
2023-02-07T16:02:48.216Z,24.33
2023-02-07T16:06:11.983Z,22.05
2023-02-07T16:09:34.409Z,21.67
2023-02-07T16:12:50.549Z,22.27
2023-02-07T16:15:53.936Z,18.37
2023-02-07T16:19:14.915Z,24.93
2023-02-07T16:22:21.638Z,19.77
2023-02-07T16:25:29.572Z,24.02
2023-02-07T16:28:32.637Z,19.17
2023-02-07T16:31:35.888Z,22.27
2023-02-07T16:34:50.347Z,23.47
2023-02-07T16:38:00.446Z,23.77
2023-02-07T16:41:04.281Z,23.50
2023-02-07T16:44:12.699Z,19.62
2023-02-07T16:47:16.584Z,21.23
2023-02-07T16:50:25.617Z,22.63
2023-02-07T16:53:28.302Z,21.83
2023-02-07T16:56:31.362Z,22.10
2023-02-07T16:59:33.996Z,20.50
2023-02-07T17:03:35.094Z,24.30
2023-02-07T17:06:38.636Z,19.47
2023-02-07T17:09:43.178Z,20.70
2023-02-07T17:12:46.118Z,25.52
2023-02-07T17:15:49.085Z,22.95
2023-02-07T17:18:51.815Z,21.20
2023-02-07T17:21:56.649Z,26.40
2023-02-07T17:25:01.032Z,28.10
2023-02-07T17:28:04.135Z,29.63
2023-02-07T17:31:06.798Z,24.98
2023-02-07T17:34:10.093Z,25.93
2023-02-07T17:37:12.537Z,24.80
2023-02-07T17:40:36.593Z,25.73
2023-02-07T17:43:41.375Z,23.65
2023-02-07T17:46:44.239Z,25.00
2023-02-07T17:49:46.604Z,21.73
2023-02-07T17:52:49.312Z,23.30
2023-02-07T17:55:52.722Z,25.70
2023-02-07T17:58:58.351Z,22.50
2023-02-07T18:02:00.854Z,24.75
2023-02-07T18:05:04.136Z,32.67
2023-02-07T18:08:06.575Z,31.10
2023-02-07T18:11:12.473Z,24.90
2023-02-07T18:14:14.934Z,27.35
2023-02-07T18:17:19.513Z,30.58
2023-02-07T18:20:26.921Z,28.80
2023-02-07T18:23:30.110Z,26.67
2023-02-07T18:26:33.179Z,25.67
2023-02-07T18:29:37.714Z,28.23
2023-02-07T18:32:46.774Z,27.75
2023-02-07T18:35:58.749Z,26.77
2023-02-07T18:39:02.880Z,28.20
2023-02-07T18:42:06.231Z,31.90
2023-02-07T18:45:10.083Z,30.45
2023-02-07T18:48:14.629Z,29.75
2023-02-07T18:51:19.348Z,32.87
2023-02-07T18:54:22.631Z,36.93
2023-02-07T18:57:25.528Z,34.17
2023-02-07T19:00:28.717Z,36.90
2023-02-07T19:03:32.562Z,36.95
2023-02-07T19:06:35.782Z,34.40
2023-02-07T19:09:38.604Z,32.10
2023-02-07T19:12:41.575Z,36.28
2023-02-07T19:15:44.203Z,35.08
2023-02-07T19:18:48.518Z,33.67
2023-02-07T19:21:51.976Z,34.03
2023-02-07T19:24:56.274Z,36.57
2023-02-07T19:27:58.668Z,38.33
2023-02-07T19:31:09.940Z,34.38
2023-02-07T19:34:14.144Z,29.40
2023-02-07T19:37:16.935Z,34.40
2023-02-07T19:40:19.663Z,32.80
2023-02-07T19:43:22.663Z,30.58
2023-02-07T19:46:25.099Z,33.58
2023-02-07T19:49:28.367Z,38.17
2023-02-07T19:52:30.687Z,38.97
2023-02-07T19:55:33.681Z,37.03
2023-02-07T19:58:38.141Z,33.60
2023-02-07T20:01:41.043Z,34.47
2023-02-07T20:04:44.034Z,33.03
2023-02-07T20:07:46.528Z,39.40
2023-02-07T20:10:49.243Z,34.93
2023-02-07T20:14:02.679Z,31.55
2023-02-07T20:17:05.496Z,39.03
2023-02-07T20:20:08.901Z,33.95
2023-02-07T20:23:12.303Z,32.20
2023-02-07T20:26:22.746Z,37.97
2023-02-07T20:29:25.475Z,39.47
2023-02-07T20:32:27.978Z,41.63
2023-02-07T20:35:30.724Z,38.00
2023-02-07T20:38:33.230Z,34.87
2023-02-07T20:41:41.163Z,34.83
2023-02-07T20:44:43.706Z,38.47
2023-02-07T20:47:46.537Z,39.30
2023-02-07T20:50:57.404Z,45.38
2023-02-07T20:54:02.457Z,41.13
2023-02-07T20:57:04.945Z,39.93
2023-02-07T21:00:08.881Z,41.63
2023-02-07T21:03:11.366Z,38.25
2023-02-07T21:06:14.116Z,41.33
2023-02-07T21:09:16.866Z,42.50
2023-02-07T21:12:28.175Z,39.13
2023-02-07T21:15:30.593Z,50.97
2023-02-07T21:18:34.672Z,36.05
2023-02-07T21:21:37.497Z,42.13
2023-02-07T21:24:42.936Z,37.57
2023-02-07T21:27:46.263Z,45.73
2023-02-07T21:30:48.976Z,31.40
2023-02-07T21:33:51.859Z,33.42
2023-02-07T21:36:54.759Z,35.40
2023-02-07T21:39:57.294Z,34.43
2023-02-07T21:43:02.244Z,33.57
2023-02-07T21:46:11.557Z,34.70
2023-02-07T21:49:17.139Z,34.40
2023-02-07T21:52:20.069Z,44.42
2023-02-07T21:55:22.884Z,37.67
2023-02-07T21:58:25.368Z,43.67
2023-02-07T22:01:56.852Z,40.08
2023-02-07T22:05:00.240Z,43.80
2023-02-07T22:08:02.662Z,39.20
2023-02-07T22:11:08.797Z,36.00
2023-02-07T22:14:12.721Z,45.77
2023-02-07T22:17:16.221Z,41.15
2023-02-07T22:20:18.736Z,49.00
2023-02-07T22:23:21.645Z,49.47
2023-02-07T22:26:25.211Z,45.40
2023-02-07T22:29:28.132Z,40.30
2023-02-07T22:32:31.225Z,42.17
2023-02-07T22:35:38.515Z,41.75
2023-02-07T22:38:40.980Z,49.33
2023-02-07T22:41:44.505Z,42.57
2023-02-07T22:44:46.963Z,43.80
2023-02-07T22:47:49.868Z,46.92
2023-02-07T22:50:52.187Z,46.72
2023-02-07T22:53:58.372Z,48.55
2023-02-07T22:57:00.819Z,39.07
2023-02-07T23:00:09.155Z,44.77
2023-02-07T23:03:11.488Z,45.05
2023-02-07T23:06:14.748Z,41.58
2023-02-07T23:09:17.624Z,39.65
2023-02-07T23:12:21.466Z,43.87
2023-02-07T23:15:25.101Z,45.53
2023-02-07T23:18:27.845Z,43.80
2023-02-07T23:21:30.501Z,40.30
2023-02-07T23:24:33.935Z,42.95
2023-02-07T23:27:37.006Z,45.00
2023-02-07T23:30:41.356Z,46.87
2023-02-07T23:33:44.461Z,39.45
2023-02-07T23:36:49.026Z,41.58
2023-02-07T23:39:51.797Z,40.20
2023-02-07T23:42:54.986Z,42.63
2023-02-07T23:45:57.491Z,40.23
2023-02-07T23:49:00.511Z,38.17
2023-02-07T23:52:02.876Z,39.50
2023-02-07T23:55:06.053Z,38.38
2023-02-07T23:58:08.467Z,47.23
